Terminal Aerodrome Forecast
Issued by NWS Omaha/Valley, NE

Current Version | Previous Version | Text Only | Print | Product List | Glossary On
Versions: 1 2 3 4 5 6 7 8 9 10 11 12 13 14 15 16 17 18 19 20 21 22 23 24 25 26 27 28 29 30 31 32 33 34 35 36 37 38 39 40 41 42 43 44 45 46 47 48
000
FTUS43 KOAX 220916 AAA
TAFOFK
TAF AMD
KOFK 220916Z 2209/2306 18012KT 5SM -RA BR OVC008
     FM221200 24008KT 6SM BR BKN010 OVC090
      TEMPO 2214/2217 SCT010 OVC090
     FM221700 32010KT P6SM OVC015
     FM230300 31013KT 4SM -SN BR OVC008=

USA.gov is the U.S. government's official web portal to all federal, state and local government web resources and services.